createdAt,value
2023-02-16T00:02:10.654Z,46.65
2023-02-16T00:04:37.622Z,45.55
2023-02-16T00:07:04.591Z,48.53
2023-02-16T00:09:31.670Z,46.65
2023-02-16T00:12:17.704Z,50.00
2023-02-16T00:14:44.565Z,47.83
2023-02-16T00:17:12.157Z,46.97
2023-02-16T00:19:42.103Z,50.33
2023-02-16T00:22:11.167Z,55.55
2023-02-16T00:24:38.097Z,51.30
2023-02-16T00:27:13.354Z,51.45
2023-02-16T00:29:40.546Z,55.83
2023-02-16T00:32:12.381Z,51.35
2023-02-16T00:34:43.225Z,48.70
2023-02-16T00:37:13.090Z,46.40
2023-02-16T00:39:42.468Z,48.08
2023-02-16T00:42:21.073Z,55.47
2023-02-16T00:44:56.583Z,45.28
2023-02-16T00:47:31.047Z,47.22
2023-02-16T00:49:58.534Z,49.93
2023-02-16T00:52:33.399Z,48.75
2023-02-16T00:55:02.236Z,47.38
2023-02-16T00:57:35.786Z,50.38
2023-02-16T01:00:24.017Z,51.42
2023-02-16T01:02:53.246Z,40.63
2023-02-16T01:05:20.484Z,54.08
2023-02-16T01:08:06.731Z,46.53
2023-02-16T01:10:53.027Z,45.38
2023-02-16T01:13:21.503Z,46.35
2023-02-16T01:15:48.550Z,49.63
2023-02-16T01:18:17.943Z,45.50
2023-02-16T01:20:45.861Z,39.42
2023-02-16T01:23:13.354Z,41.22
2023-02-16T01:25:41.327Z,45.58
2023-02-16T01:28:35.590Z,38.97
2023-02-16T01:33:57.603Z,41.42
2023-02-16T01:36:29.915Z,44.83
2023-02-16T01:38:56.969Z,44.45
2023-02-16T01:41:56.567Z,40.10
2023-02-16T01:44:54.190Z,41.00
2023-02-16T01:47:41.137Z,41.65
2023-02-16T01:50:30.794Z,39.58
2023-02-16T01:53:03.796Z,37.42
2023-02-16T01:55:36.700Z,40.47
2023-02-16T01:58:16.601Z,39.90
2023-02-16T02:00:51.718Z,41.63
2023-02-16T02:03:50.000Z,38.17
2023-02-16T02:06:22.586Z,37.67
2023-02-16T02:09:11.195Z,40.90
2023-02-16T02:11:49.448Z,50.12
2023-02-16T02:14:22.969Z,45.97
2023-02-16T02:16:58.766Z,42.58
2023-02-16T02:19:26.566Z,39.97
2023-02-16T02:22:31.075Z,45.20
2023-02-16T02:25:10.225Z,42.78
2023-02-16T02:28:08.846Z,47.62
2023-02-16T02:30:39.005Z,51.78
2023-02-16T02:33:24.569Z,61.83
2023-02-16T02:35:57.483Z,54.53
2023-02-16T02:38:27.646Z,57.40
2023-02-16T02:41:45.026Z,74.82
2023-02-16T02:44:15.121Z,61.92
2023-02-16T02:46:42.292Z,61.53
2023-02-16T02:49:09.282Z,78.73
2023-02-16T02:51:40.356Z,84.15
2023-02-16T02:54:48.967Z,97.78
2023-02-16T02:57:37.561Z,82.18
2023-02-16T03:00:40.212Z,69.40
2023-02-16T03:03:20.479Z,89.30
2023-02-16T03:05:59.776Z,113.57
2023-02-16T03:08:29.417Z,95.43
2023-02-16T03:11:21.937Z,110.20
2023-02-16T03:13:55.973Z,91.18
2023-02-16T03:16:48.440Z,76.17
2023-02-16T03:19:36.606Z,79.90
2023-02-16T03:22:23.834Z,75.47
2023-02-16T03:25:09.680Z,66.20
2023-02-16T03:27:59.338Z,66.55
2023-02-16T03:30:28.144Z,57.50
2023-02-16T03:32:55.599Z,65.03
2023-02-16T03:35:22.695Z,66.32
2023-02-16T03:37:49.652Z,60.78
2023-02-16T03:40:30.059Z,63.53
2023-02-16T03:43:02.378Z,58.00
2023-02-16T03:45:30.881Z,64.65
2023-02-16T03:47:57.833Z,60.67
2023-02-16T03:50:27.118Z,61.90
2023-02-16T03:53:06.897Z,63.03
2023-02-16T03:55:35.141Z,72.83
2023-02-16T03:58:02.323Z,71.70
2023-02-16T04:00:29.318Z,64.40
2023-02-16T04:02:56.480Z,60.72
2023-02-16T04:05:23.515Z,64.10
2023-02-16T04:07:50.461Z,68.77
2023-02-16T04:10:17.766Z,57.67
2023-02-16T04:12:45.132Z,60.12
2023-02-16T04:15:18.205Z,64.55
2023-02-16T04:17:45.888Z,68.72
2023-02-16T04:20:15.874Z,66.80
2023-02-16T04:22:42.887Z,66.18
2023-02-16T04:25:10.315Z,62.00
2023-02-16T04:27:38.101Z,74.62
2023-02-16T04:30:06.807Z,78.12
2023-02-16T04:32:33.844Z,57.53
2023-02-16T04:35:00.801Z,69.35
2023-02-16T04:37:27.960Z,73.32
2023-02-16T04:39:55.055Z,79.47
2023-02-16T04:42:22.051Z,83.25
2023-02-16T04:44:49.066Z,65.53
2023-02-16T04:47:16.192Z,63.25
2023-02-16T04:49:43.298Z,84.57
2023-02-16T04:52:12.173Z,67.68
2023-02-16T04:54:39.505Z,78.10
2023-02-16T04:57:06.587Z,72.07
2023-02-16T04:59:33.517Z,60.17
2023-02-16T05:02:00.422Z,66.25
2023-02-16T05:04:27.433Z,71.60
2023-02-16T05:06:54.485Z,77.20
2023-02-16T05:09:21.471Z,62.33
2023-02-16T05:12:06.994Z,82.65
2023-02-16T05:14:41.825Z,103.30
2023-02-16T05:17:11.051Z,99.70
2023-02-16T05:19:38.403Z,68.80
2023-02-16T05:22:05.646Z,76.13
2023-02-16T05:24:34.620Z,97.45
2023-02-16T05:27:06.369Z,78.80
2023-02-16T05:29:33.926Z,91.85
2023-02-16T05:32:04.322Z,125.12
2023-02-16T05:34:32.097Z,119.73
2023-02-16T05:36:58.961Z,109.22
2023-02-16T05:39:25.914Z,83.15
2023-02-16T05:41:53.019Z,80.50
2023-02-16T05:44:19.979Z,82.32
2023-02-16T05:46:47.027Z,94.93
2023-02-16T05:49:15.411Z,63.65
2023-02-16T05:51:42.807Z,85.18
2023-02-16T05:54:10.973Z,88.12
2023-02-16T05:56:37.859Z,66.65
2023-02-16T05:59:04.752Z,87.53
2023-02-16T06:01:31.611Z,61.37
2023-02-16T06:03:58.495Z,70.57
2023-02-16T06:06:25.409Z,57.92
2023-02-16T06:08:52.535Z,69.45
2023-02-16T06:11:37.762Z,52.37
2023-02-16T06:14:19.013Z,69.28
2023-02-16T06:16:48.798Z,83.90
2023-02-16T06:19:17.999Z,79.22
2023-02-16T06:21:45.423Z,75.93
2023-02-16T06:24:13.947Z,70.20
2023-02-16T06:26:41.273Z,77.10
2023-02-16T06:29:09.132Z,94.25
2023-02-16T06:31:36.975Z,82.97
2023-02-16T06:34:04.301Z,71.82
2023-02-16T06:36:31.827Z,55.20
2023-02-16T06:38:58.920Z,72.22
2023-02-16T06:41:31.998Z,82.10
2023-02-16T06:44:04.187Z,82.18
2023-02-16T06:46:31.233Z,111.93
2023-02-16T06:48:59.050Z,65.80
2023-02-16T06:51:26.508Z,78.35
2023-02-16T06:53:53.477Z,108.53
2023-02-16T06:56:20.968Z,77.45
2023-02-16T06:58:48.164Z,73.70
2023-02-16T07:01:15.317Z,56.50
2023-02-16T07:03:42.399Z,64.70
2023-02-16T07:06:09.432Z,66.15
2023-02-16T07:08:38.751Z,58.40
2023-02-16T07:11:05.916Z,62.05
2023-02-16T07:13:36.521Z,62.43
2023-02-16T07:16:05.450Z,77.50
2023-02-16T07:18:33.789Z,109.25
2023-02-16T07:21:00.969Z,95.85
2023-02-16T07:23:27.996Z,79.97
2023-02-16T07:25:54.974Z,106.93
2023-02-16T07:28:21.981Z,64.28
2023-02-16T07:30:49.120Z,74.18
2023-02-16T07:33:16.233Z,69.78
2023-02-16T07:35:43.630Z,58.63
2023-02-16T07:38:10.870Z,76.37
2023-02-16T07:40:37.934Z,51.97
2023-02-16T07:43:06.260Z,64.72
2023-02-16T07:45:34.024Z,68.32
2023-02-16T07:48:01.856Z,73.32
2023-02-16T07:50:28.917Z,65.33
2023-02-16T07:52:56.132Z,63.15
2023-02-16T07:55:23.179Z,63.38
2023-02-16T07:57:54.741Z,79.37
2023-02-16T08:00:22.405Z,96.85
2023-02-16T08:02:49.936Z,70.60
2023-02-16T08:05:17.667Z,76.10
2023-02-16T08:07:46.618Z,68.37
2023-02-16T08:10:14.658Z,87.65
2023-02-16T08:12:41.778Z,65.70
2023-02-16T08:15:09.960Z,67.40
2023-02-16T08:17:37.318Z,66.15
2023-02-16T08:20:07.575Z,77.97
2023-02-16T08:22:35.100Z,91.00
2023-02-16T08:25:01.944Z,81.57
2023-02-16T08:27:28.809Z,65.47
2023-02-16T08:29:55.897Z,107.72
2023-02-16T08:32:23.033Z,105.45
2023-02-16T08:34:50.056Z,89.90
2023-02-16T08:37:17.013Z,87.43
2023-02-16T08:39:44.100Z,79.37
2023-02-16T08:42:13.457Z,65.28
2023-02-16T08:44:41.122Z,81.18
2023-02-16T08:47:09.569Z,97.55
2023-02-16T08:49:36.609Z,73.45
2023-02-16T08:52:04.273Z,72.07
2023-02-16T08:54:33.395Z,104.57
2023-02-16T08:57:02.881Z,87.97
2023-02-16T08:59:30.455Z,85.53
2023-02-16T09:01:58.551Z,79.30
2023-02-16T09:04:27.595Z,70.80
2023-02-16T09:06:56.286Z,65.20
2023-02-16T09:09:23.193Z,66.35
2023-02-16T09:11:50.653Z,60.58
2023-02-16T09:14:18.972Z,69.62
2023-02-16T09:16:46.471Z,80.07
2023-02-16T09:19:15.595Z,69.93
2023-02-16T09:21:43.045Z,57.45
2023-02-16T09:24:11.636Z,57.10
2023-02-16T09:26:42.621Z,58.78
2023-02-16T09:29:12.374Z,64.87
2023-02-16T09:31:40.427Z,63.50
2023-02-16T09:34:21.038Z,64.57
2023-02-16T09:36:48.993Z,54.90
2023-02-16T09:39:17.135Z,64.45
2023-02-16T09:41:58.951Z,73.37
2023-02-16T09:44:49.755Z,66.40
2023-02-16T09:47:29.546Z,56.50
2023-02-16T09:49:59.379Z,63.38
2023-02-16T09:52:36.205Z,66.60
2023-02-16T09:55:11.522Z,62.20
2023-02-16T09:57:57.174Z,68.65
2023-02-16T10:00:26.770Z,68.28
2023-02-16T10:03:06.777Z,61.97
2023-02-16T10:06:02.780Z,57.30
2023-02-16T10:08:37.367Z,59.03
2023-02-16T10:11:40.962Z,57.92
2023-02-16T10:14:33.635Z,61.05
2023-02-16T10:17:12.354Z,64.70
2023-02-16T10:20:06.422Z,59.97
2023-02-16T10:22:49.865Z,57.47
2023-02-16T10:25:35.128Z,60.83
2023-02-16T10:28:17.568Z,60.63
2023-02-16T10:31:12.871Z,54.95
2023-02-16T10:33:56.900Z,59.58
2023-02-16T10:36:55.469Z,56.93
2023-02-16T10:39:29.676Z,55.25
2023-02-16T10:42:05.095Z,58.65
2023-02-16T10:44:40.294Z,53.22
2023-02-16T10:47:24.250Z,56.78
2023-02-16T10:49:52.209Z,53.90
2023-02-16T10:52:20.002Z,52.50
2023-02-16T10:54:47.068Z,62.28
2023-02-16T10:57:34.166Z,67.22
2023-02-16T11:00:06.815Z,58.92
2023-02-16T11:02:41.039Z,59.13
2023-02-16T11:05:28.205Z,60.80
2023-02-16T11:07:57.757Z,62.85
2023-02-16T11:10:43.441Z,56.33
2023-02-16T11:13:32.466Z,59.78
2023-02-16T11:16:19.396Z,64.67
2023-02-16T11:18:56.053Z,56.10
2023-02-16T11:21:46.443Z,55.63
2023-02-16T11:24:33.571Z,52.72
2023-02-16T11:27:05.404Z,55.10
2023-02-16T11:29:33.162Z,55.27
2023-02-16T11:32:06.546Z,54.97
2023-02-16T11:34:53.605Z,50.33
2023-02-16T11:37:29.489Z,48.60
2023-02-16T11:40:01.121Z,42.17
2023-02-16T11:43:00.429Z,46.50
2023-02-16T11:45:31.501Z,36.30
2023-02-16T11:48:04.938Z,37.08
2023-02-16T11:50:35.224Z,31.55
2023-02-16T11:53:11.528Z,30.30
2023-02-16T11:55:41.877Z,34.00
2023-02-16T11:58:25.170Z,32.53
2023-02-16T12:01:06.129Z,36.28
2023-02-16T12:03:51.057Z,34.50
2023-02-16T12:06:43.120Z,34.67
2023-02-16T12:09:41.509Z,35.23
2023-02-16T12:12:33.074Z,30.30
2023-02-16T12:15:13.294Z,34.10
2023-02-16T12:18:04.996Z,31.40
2023-02-16T12:21:03.163Z,33.78
2023-02-16T12:24:00.154Z,31.60
2023-02-16T12:26:31.632Z,35.92
2023-02-16T12:29:34.633Z,33.83
2023-02-16T12:32:26.626Z,35.17
2023-02-16T12:35:07.258Z,34.65
2023-02-16T12:37:52.462Z,37.57
2023-02-16T12:40:47.365Z,34.25
2023-02-16T12:43:48.742Z,34.47
2023-02-16T12:46:47.318Z,34.35
2023-02-16T12:49:28.139Z,29.90
2023-02-16T12:52:34.252Z,38.47
2023-02-16T12:55:19.036Z,30.67
2023-02-16T12:57:53.582Z,32.17
2023-02-16T13:00:38.982Z,31.27
2023-02-16T13:03:39.469Z,33.30
2023-02-16T13:06:33.883Z,34.70
2023-02-16T13:09:40.231Z,36.15
2023-02-16T13:12:11.668Z,34.40
2023-02-16T13:14:42.819Z,39.13
2023-02-16T13:17:21.218Z,36.58
2023-02-16T13:19:52.024Z,38.57
2023-02-16T13:22:48.468Z,35.40
2023-02-16T13:25:46.886Z,34.28
2023-02-16T13:28:53.758Z,37.22
2023-02-16T13:31:54.635Z,39.90
2023-02-16T13:34:56.582Z,36.20
2023-02-16T13:37:26.534Z,37.28
2023-02-16T13:39:56.307Z,39.90
2023-02-16T13:42:33.029Z,38.00
2023-02-16T13:45:02.565Z,38.28
2023-02-16T13:47:33.550Z,44.87
2023-02-16T13:50:07.194Z,38.38
2023-02-16T13:52:41.902Z,41.53
2023-02-16T13:55:27.875Z,37.65
2023-02-16T13:58:01.743Z,39.85
2023-02-16T14:00:42.275Z,38.33
2023-02-16T14:03:12.723Z,40.05
2023-02-16T14:05:43.030Z,40.80
2023-02-16T14:08:29.397Z,41.55
2023-02-16T14:11:03.952Z,36.42
2023-02-16T14:13:32.273Z,36.93
2023-02-16T14:16:22.479Z,40.03
2023-02-16T14:18:59.859Z,36.38
2023-02-16T14:21:39.323Z,37.83
2023-02-16T14:24:12.790Z,39.92
2023-02-16T14:26:55.054Z,37.80
2023-02-16T14:29:37.177Z,38.45
2023-02-16T14:32:13.881Z,37.35
2023-02-16T14:34:51.301Z,38.47
2023-02-16T14:37:18.488Z,39.53
2023-02-16T14:40:06.837Z,39.13
2023-02-16T14:42:36.171Z,37.88
2023-02-16T14:45:22.331Z,40.80
2023-02-16T14:48:24.934Z,41.00
2023-02-16T14:51:28.927Z,40.97
2023-02-16T14:54:16.593Z,36.63
2023-02-16T14:56:53.158Z,42.03
2023-02-16T14:59:40.642Z,43.08
2023-02-16T15:02:30.599Z,35.65
2023-02-16T15:04:58.363Z,37.97
2023-02-16T15:07:28.298Z,43.50
2023-02-16T15:09:59.092Z,38.33
2023-02-16T15:12:30.599Z,44.30
2023-02-16T15:15:04.657Z,41.80
2023-02-16T15:17:36.339Z,44.28
2023-02-16T15:20:29.487Z,43.03
2023-02-16T15:22:59.087Z,39.13
2023-02-16T15:25:33.089Z,43.95
2023-02-16T15:28:05.728Z,42.35
2023-02-16T15:30:35.941Z,41.90
2023-02-16T15:33:14.260Z,41.03
2023-02-16T15:35:46.707Z,42.50
2023-02-16T15:38:16.943Z,39.65
2023-02-16T15:40:46.367Z,37.72
2023-02-16T15:43:35.823Z,40.12
2023-02-16T15:46:07.142Z,43.13
2023-02-16T15:48:38.346Z,35.55
2023-02-16T15:51:16.409Z,37.42
2023-02-16T15:53:57.844Z,39.65
2023-02-16T15:56:44.963Z,36.22
2023-02-16T15:59:34.377Z,38.57
2023-02-16T16:02:21.265Z,34.25
2023-02-16T16:04:58.848Z,39.47
2023-02-16T16:07:28.277Z,32.22
2023-02-16T16:09:57.051Z,38.67
2023-02-16T16:12:26.088Z,33.87
2023-02-16T16:14:58.345Z,31.52
2023-02-16T16:17:29.843Z,29.20
2023-02-16T16:20:29.883Z,33.38
2023-02-16T16:23:06.846Z,30.25
2023-02-16T16:25:45.225Z,33.70
2023-02-16T16:28:30.870Z,29.33
2023-02-16T16:31:22.328Z,33.45
2023-02-16T16:33:54.558Z,30.40
2023-02-16T16:36:40.112Z,34.53
2023-02-16T16:39:10.668Z,31.47
2023-02-16T16:41:40.593Z,34.72
2023-02-16T16:44:35.662Z,31.70
2023-02-16T16:47:28.477Z,34.53
2023-02-16T16:50:02.156Z,33.53
2023-02-16T16:52:38.729Z,35.50
2023-02-16T16:55:35.085Z,30.92
2023-02-16T16:58:10.259Z,34.78
2023-02-16T17:00:42.062Z,36.50
2023-02-16T17:03:15.250Z,37.72
2023-02-16T17:05:46.083Z,38.07
2023-02-16T17:08:23.193Z,54.50
2023-02-16T17:10:54.254Z,45.72
2023-02-16T17:13:24.375Z,46.05
2023-02-16T17:16:04.445Z,51.40
2023-02-16T17:18:37.258Z,54.57
2023-02-16T17:21:07.852Z,112.78
2023-02-16T17:23:50.392Z,101.47
2023-02-16T17:26:22.037Z,85.47
2023-02-16T17:28:54.484Z,56.95
2023-02-16T17:31:24.633Z,76.53
2023-02-16T17:33:53.171Z,76.70
2023-02-16T17:36:23.376Z,77.65
2023-02-16T17:38:51.652Z,82.95
2023-02-16T17:41:26.019Z,80.30
2023-02-16T17:44:02.737Z,56.40
2023-02-16T17:46:34.185Z,67.70
2023-02-16T17:49:03.073Z,62.67
2023-02-16T17:51:41.224Z,63.45
2023-02-16T17:54:14.142Z,64.43
2023-02-16T17:56:46.540Z,66.30
2023-02-16T17:59:30.140Z,82.10
2023-02-16T18:02:07.190Z,71.75
2023-02-16T18:04:41.221Z,72.43
2023-02-16T18:07:14.688Z,79.70
2023-02-16T18:09:44.465Z,88.27
2023-02-16T18:12:12.742Z,79.50
2023-02-16T18:14:41.113Z,100.53
2023-02-16T18:17:15.833Z,82.62
2023-02-16T18:19:44.318Z,76.37
2023-02-16T18:22:15.561Z,79.23
2023-02-16T18:25:00.765Z,87.95
2023-02-16T18:27:36.945Z,105.95
2023-02-16T18:30:07.118Z,93.70
2023-02-16T18:32:38.993Z,155.48
2023-02-16T18:35:14.853Z,131.40
2023-02-16T18:37:45.918Z,102.72
2023-02-16T18:40:20.039Z,113.97
2023-02-16T18:42:52.684Z,111.50
2023-02-16T18:45:30.255Z,106.28
2023-02-16T18:48:03.586Z,115.93
2023-02-16T18:50:34.049Z,111.72
2023-02-16T18:53:04.871Z,117.07
2023-02-16T18:55:35.784Z,115.50
2023-02-16T18:58:08.246Z,107.93
2023-02-16T19:00:41.756Z,97.03
2023-02-16T19:03:13.811Z,104.07
2023-02-16T19:05:45.615Z,92.93
2023-02-16T19:08:14.418Z,85.85
2023-02-16T19:10:43.158Z,87.45
2023-02-16T19:13:11.946Z,72.37
2023-02-16T19:15:43.651Z,74.45
2023-02-16T19:18:14.338Z,70.85
2023-02-16T19:20:45.737Z,68.12
2023-02-16T19:23:37.541Z,77.72
2023-02-16T19:26:13.540Z,65.43
2023-02-16T19:28:42.887Z,60.28
2023-02-16T19:31:22.102Z,52.03
2023-02-16T19:33:55.467Z,67.28
2023-02-16T19:36:24.834Z,64.32
2023-02-16T19:38:55.631Z,58.23
2023-02-16T19:41:38.591Z,63.87
2023-02-16T19:44:13.921Z,87.75
2023-02-16T19:46:45.256Z,69.53
2023-02-16T19:49:15.770Z,87.12
2023-02-16T19:51:46.296Z,78.27
2023-02-16T19:54:16.986Z,59.90
2023-02-16T19:56:48.207Z,67.93
2023-02-16T19:59:23.772Z,64.90
2023-02-16T20:01:52.683Z,57.08
2023-02-16T20:04:21.810Z,55.13
2023-02-16T20:06:52.184Z,58.17
2023-02-16T20:09:23.080Z,60.67
2023-02-16T20:11:52.204Z,73.72
2023-02-16T20:14:21.675Z,72.37
2023-02-16T20:17:05.056Z,75.83
2023-02-16T20:19:33.556Z,79.65
2023-02-16T20:22:12.399Z,75.15
2023-02-16T20:24:41.045Z,97.45
2023-02-16T20:27:10.303Z,82.40
2023-02-16T20:29:39.445Z,67.23
2023-02-16T20:32:10.608Z,60.45
2023-02-16T20:34:39.937Z,65.60
2023-02-16T20:37:09.026Z,63.03
2023-02-16T20:39:38.431Z,76.30
2023-02-16T20:42:06.870Z,64.40
2023-02-16T20:44:35.098Z,65.78
2023-02-16T20:47:05.866Z,59.50
2023-02-16T20:49:36.950Z,53.92
2023-02-16T20:52:05.004Z,48.38
2023-02-16T20:54:33.520Z,52.17
2023-02-16T20:57:01.771Z,54.50
2023-02-16T20:59:33.221Z,55.80
2023-02-16T21:02:05.043Z,49.60
2023-02-16T21:04:33.925Z,47.55
2023-02-16T21:07:02.445Z,52.10
2023-02-16T21:09:30.920Z,59.25
2023-02-16T21:11:59.597Z,54.83
2023-02-16T21:14:27.981Z,64.47
2023-02-16T21:16:55.949Z,53.47
2023-02-16T21:19:24.304Z,54.57
2023-02-16T21:21:53.240Z,54.33
2023-02-16T21:24:21.384Z,57.85
2023-02-16T21:26:51.976Z,57.92
2023-02-16T21:29:19.859Z,55.15
2023-02-16T21:31:47.533Z,56.17
2023-02-16T21:34:15.321Z,59.13
2023-02-16T21:36:42.576Z,55.30
2023-02-16T21:39:10.381Z,52.90
2023-02-16T21:41:37.849Z,62.03
2023-02-16T21:44:06.999Z,62.73
2023-02-16T21:46:43.407Z,61.97
2023-02-16T21:49:19.425Z,59.67
2023-02-16T21:51:48.350Z,56.88
2023-02-16T21:54:18.228Z,53.40
2023-02-16T21:56:50.185Z,56.03
2023-02-16T21:59:19.475Z,55.03
2023-02-16T22:01:51.371Z,56.15
2023-02-16T22:04:21.928Z,52.15
2023-02-16T22:06:50.656Z,52.40
2023-02-16T22:09:22.813Z,57.70
2023-02-16T22:11:50.843Z,45.72
2023-02-16T22:14:18.017Z,56.63
2023-02-16T22:16:46.439Z,54.10
2023-02-16T22:19:16.921Z,71.03
2023-02-16T22:21:45.598Z,63.17
2023-02-16T22:24:14.614Z,51.88
2023-02-16T22:26:41.583Z,48.72
2023-02-16T22:29:09.826Z,52.08
2023-02-16T22:31:37.174Z,60.38
2023-02-16T22:34:07.612Z,58.40
2023-02-16T22:36:36.432Z,53.63
2023-02-16T22:39:03.728Z,54.78
2023-02-16T22:41:30.759Z,52.53
2023-02-16T22:43:59.674Z,54.85
2023-02-16T22:46:28.163Z,59.90
2023-02-16T22:48:58.594Z,54.45
2023-02-16T22:51:29.024Z,57.85
2023-02-16T22:53:58.420Z,50.83
2023-02-16T22:56:26.971Z,53.33
2023-02-16T22:58:57.546Z,57.80
2023-02-16T23:01:26.617Z,59.13
2023-02-16T23:03:58.564Z,55.47
2023-02-16T23:06:31.474Z,57.95
2023-02-16T23:09:01.598Z,56.97
2023-02-16T23:11:28.861Z,52.00
2023-02-16T23:13:55.885Z,59.40
2023-02-16T23:16:26.021Z,58.40
2023-02-16T23:18:55.269Z,55.08
2023-02-16T23:21:33.139Z,58.25
2023-02-16T23:24:00.617Z,52.07
2023-02-16T23:26:29.447Z,54.58
2023-02-16T23:29:01.007Z,55.30
2023-02-16T23:31:31.613Z,50.90
2023-02-16T23:34:00.407Z,58.92
2023-02-16T23:36:29.269Z,48.40
2023-02-16T23:38:59.785Z,51.28
2023-02-16T23:41:27.088Z,49.13
2023-02-16T23:43:55.628Z,51.92
2023-02-16T23:46:23.150Z,50.28
2023-02-16T23:48:50.447Z,48.43
2023-02-16T23:51:17.598Z,51.45
2023-02-16T23:53:44.603Z,55.55
2023-02-16T23:56:14.966Z,61.40
2023-02-16T23:58:46.543Z,59.08
